Time;durP1;ratioP1;P1;durP2;ratioP2;P2;SDS_P1;SDS_P2;PMS_P1;PMS_P2;Temp;Humidity;BMP_temperature;BMP_pressure;BME280_temperature;BME280_humidity;BME280_pressure;Samples;Min_cycle;Max_cycle;Signal;HPM_P1;HPM_P2
2021/07/24 00:01:53;;;;;;;13.33;10.47;;;;;;;;;;5033002;28;20450;-67
2021/07/24 00:04:19;;;;;;;14.00;10.73;;;;;;;;;;5033243;28;20860;-68
2021/07/24 00:06:45;;;;;;;13.87;10.40;;;;;;;;;;5033544;28;20493;-67
2021/07/24 00:09:12;;;;;;;14.20;11.20;;;;;;;;;;5032985;28;20907;-67
2021/07/24 00:11:38;;;;;;;16.93;11.50;;;;;;;;;;5049818;28;20942;-67
2021/07/24 00:14:03;;;;;;;16.80;11.23;;;;;;;;;;5052938;28;20410;-67
2021/07/24 00:16:30;;;;;;;15.77;11.97;;;;;;;;;;5053028;28;20440;-67
2021/07/24 00:18:56;;;;;;;18.33;10.50;;;;;;;;;;5053521;28;20406;-67
2021/07/24 00:21:22;;;;;;;17.17;11.63;;;;;;;;;;5052402;28;20958;-68
2021/07/24 00:23:48;;;;;;;14.30;10.03;;;;;;;;;;5052429;28;20406;-69
2021/07/24 00:26:14;;;;;;;14.23;10.27;;;;;;;;;;5033878;28;20537;-68
2021/07/24 00:28:41;;;;;;;14.00;9.57;;;;;;;;;;5032519;28;20398;-67
2021/07/24 00:31:07;;;;;;;16.33;10.70;;;;;;;;;;5043382;28;20414;-67
2021/07/24 00:33:34;;;;;;;13.83;10.70;;;;;;;;;;5051196;28;20463;-68
2021/07/24 00:36:00;;;;;;;16.33;10.70;;;;;;;;;;5052045;28;20446;-68
2021/07/24 00:38:26;;;;;;;14.17;9.77;;;;;;;;;;5052269;28;20544;-67
2021/07/24 00:40:54;;;;;;;15.20;11.73;;;;;;;;;;5052023;28;20507;-68
2021/07/24 00:43:22;;;;;;;12.60;10.37;;;;;;;;;;5052287;28;20399;-68
2021/07/24 00:45:49;;;;;;;17.13;11.00;;;;;;;;;;5044577;28;20881;-68
2021/07/24 00:48:20;;;;;;;15.63;10.90;;;;;;;;;;5032328;28;20494;-68
2021/07/24 00:50:50;;;;;;;17.20;11.37;;;;;;;;;;5039443;28;20417;-68
2021/07/24 00:53:23;;;;;;;19.93;10.70;;;;;;;;;;5052321;28;20481;-68
2021/07/24 00:55:50;;;;;;;18.03;11.70;;;;;;;;;;5052189;28;20459;-68
2021/07/24 00:58:25;;;;;;;16.63;10.87;;;;;;;;;;5053809;28;20413;-68
2021/07/24 01:00:51;;;;;;;18.40;10.67;;;;;;;;;;5070881;28;20949;-67
2021/07/24 01:03:17;;;;;;;18.17;10.40;;;;;;;;;;5055851;28;20496;-67
2021/07/24 01:05:44;;;;;;;14.97;11.07;;;;;;;;;;5055470;28;20398;-68
2021/07/24 01:08:10;;;;;;;15.50;10.83;;;;;;;;;;5056152;28;20394;-68
2021/07/24 01:10:37;;;;;;;19.63;12.00;;;;;;;;;;5055448;28;20410;-68
2021/07/24 01:13:04;;;;;;;17.80;11.70;;;;;;;;;;5043239;28;20476;-68
2021/07/24 01:15:31;;;;;;;13.57;10.97;;;;;;;;;;5050459;28;20421;-67
2021/07/24 01:17:57;;;;;;;16.87;11.50;;;;;;;;;;5055455;28;20429;-67
2021/07/24 01:20:24;;;;;;;14.73;10.57;;;;;;;;;;5055089;28;20509;-68
2021/07/24 01:22:51;;;;;;;16.67;12.63;;;;;;;;;;5055167;28;20425;-67
2021/07/24 01:25:17;;;;;;;16.57;11.93;;;;;;;;;;5055394;28;20573;-68
2021/07/24 01:27:46;;;;;;;17.30;12.40;;;;;;;;;;5054716;28;20583;-67
2021/07/24 01:30:12;;;;;;;17.23;12.57;;;;;;;;;;5055618;28;20401;-67
2021/07/24 01:32:38;;;;;;;14.53;11.47;;;;;;;;;;5055124;28;20434;-67
2021/07/24 01:35:05;;;;;;;21.53;13.00;;;;;;;;;;5055362;28;20559;-68
2021/07/24 01:37:31;;;;;;;16.30;12.00;;;;;;;;;;5055134;28;20438;-68
2021/07/24 01:39:57;;;;;;;17.17;11.77;;;;;;;;;;5055171;28;20414;-68
2021/07/24 01:42:23;;;;;;;14.30;11.60;;;;;;;;;;5054685;28;20452;-67
2021/07/24 01:44:49;;;;;;;15.60;10.87;;;;;;;;;;5055065;28;20398;-67
2021/07/24 01:47:15;;;;;;;14.97;10.80;;;;;;;;;;5061490;28;20448;-66
2021/07/24 01:52:47;;;;;;;17.30;12.83;;;;;;;;;;5065247;28;20949;-66
2021/07/24 01:55:31;;;;;;;17.30;10.87;;;;;;;;;;5055036;28;20381;-66
2021/07/24 01:58:01;;;;;;;17.20;12.30;;;;;;;;;;5054478;28;20540;-66
2021/07/24 02:00:29;;;;;;;22.27;14.20;;;;;;;;;;5054757;28;20402;-66
2021/07/24 02:02:56;;;;;;;18.63;12.23;;;;;;;;;;5054866;28;20464;-67
2021/07/24 02:05:29;;;;;;;20.40;12.30;;;;;;;;;;5054653;28;20421;-67
2021/07/24 02:07:58;;;;;;;15.30;11.57;;;;;;;;;;5054110;28;20453;-67
2021/07/24 02:10:24;;;;;;;18.30;10.83;;;;;;;;;;5054725;28;20412;-67
2021/07/24 02:12:50;;;;;;;20.33;12.73;;;;;;;;;;5053791;28;20923;-67
2021/07/24 02:15:16;;;;;;;17.40;11.33;;;;;;;;;;5054633;28;20902;-67
2021/07/24 02:17:43;;;;;;;17.50;11.37;;;;;;;;;;5052306;28;20445;-67
2021/07/24 02:20:10;;;;;;;17.90;11.10;;;;;;;;;;5054482;28;20887;-66
2021/07/24 02:22:36;;;;;;;16.90;11.90;;;;;;;;;;5054132;28;20461;-66
2021/07/24 02:25:03;;;;;;;15.30;11.47;;;;;;;;;;5054482;28;20394;-67
2021/07/24 02:27:29;;;;;;;25.70;12.63;;;;;;;;;;5046101;28;20450;-67
2021/07/24 02:29:55;;;;;;;14.37;11.43;;;;;;;;;;5034416;28;20406;-67
2021/07/24 02:32:21;;;;;;;19.27;12.50;;;;;;;;;;5040914;28;20754;-67
2021/07/24 02:34:47;;;;;;;16.50;11.40;;;;;;;;;;5054241;28;20397;-67
2021/07/24 02:37:13;;;;;;;15.27;11.57;;;;;;;;;;5053936;28;20449;-67
2021/07/24 02:39:39;;;;;;;18.47;13.20;;;;;;;;;;5047535;28;20437;-67
2021/07/24 02:42:05;;;;;;;16.60;11.20;;;;;;;;;;5035278;28;20458;-69
2021/07/24 02:44:31;;;;;;;15.60;10.80;;;;;;;;;;5044053;28;20411;-68
2021/07/24 02:46:57;;;;;;;15.70;11.60;;;;;;;;;;5052231;28;20444;-68
2021/07/24 02:49:23;;;;;;;15.43;11.90;;;;;;;;;;5035898;28;20426;-68
2021/07/24 02:51:49;;;;;;;18.03;11.90;;;;;;;;;;5035821;28;21021;-68
2021/07/24 02:54:15;;;;;;;13.67;11.03;;;;;;;;;;5054242;28;20405;-67
2021/07/24 02:56:41;;;;;;;19.63;11.00;;;;;;;;;;5053962;28;20432;-69
2021/07/24 02:59:07;;;;;;;16.80;12.00;;;;;;;;;;5053783;28;20492;-68
2021/07/24 03:01:33;;;;;;;21.40;13.60;;;;;;;;;;5053724;28;20853;-67
2021/07/24 03:03:59;;;;;;;24.20;13.23;;;;;;;;;;5050103;28;20461;-68
2021/07/24 03:06:25;;;;;;;16.40;12.77;;;;;;;;;;5053462;28;20473;-68
2021/07/24 03:08:51;;;;;;;19.77;11.47;;;;;;;;;;5070377;28;20456;-67
2021/07/24 03:11:17;;;;;;;19.23;13.23;;;;;;;;;;5071771;28;20488;-69
2021/07/24 03:13:44;;;;;;;18.83;13.17;;;;;;;;;;5056538;28;20452;-68
2021/07/24 03:16:10;;;;;;;19.53;13.03;;;;;;;;;;5053292;28;20979;-68
2021/07/24 03:18:36;;;;;;;18.47;11.90;;;;;;;;;;5053400;28;20434;-67
2021/07/24 03:21:02;;;;;;;15.70;12.10;;;;;;;;;;5047615;28;20454;-68
2021/07/24 03:23:28;;;;;;;19.83;11.30;;;;;;;;;;5046238;28;20969;-67
2021/07/24 03:25:54;;;;;;;19.33;12.30;;;;;;;;;;5053448;28;20402;-67
2021/07/24 03:28:20;;;;;;;17.67;12.40;;;;;;;;;;5041385;28;20410;-67
2021/07/24 03:30:46;;;;;;;16.50;12.87;;;;;;;;;;5033581;28;20399;-67
2021/07/24 03:33:12;;;;;;;18.27;12.80;;;;;;;;;;5044716;28;20422;-67
2021/07/24 03:35:38;;;;;;;19.23;12.37;;;;;;;;;;5053006;28;20440;-67
2021/07/24 03:38:04;;;;;;;16.50;12.10;;;;;;;;;;5061556;28;20432;-67
2021/07/24 03:40:31;;;;;;;18.03;11.90;;;;;;;;;;5072974;28;20844;-67
2021/07/24 03:42:57;;;;;;;17.47;11.87;;;;;;;;;;5071242;28;20429;-67
2021/07/24 03:45:23;;;;;;;16.07;12.43;;;;;;;;;;5058704;28;20427;-67
2021/07/24 03:47:49;;;;;;;15.97;11.30;;;;;;;;;;5033042;28;20457;-67
2021/07/24 03:50:15;;;;;;;18.20;11.07;;;;;;;;;;5033251;28;20811;-67
2021/07/24 03:52:41;;;;;;;18.60;12.97;;;;;;;;;;5043825;28;20466;-67
2021/07/24 03:55:07;;;;;;;20.00;14.00;;;;;;;;;;5073422;28;20483;-67
2021/07/24 03:57:33;;;;;;;18.53;13.53;;;;;;;;;;5066705;28;20453;-67
2021/07/24 04:00:02;;;;;;;19.70;11.90;;;;;;;;;;5052784;28;20406;-67
2021/07/24 04:02:28;;;;;;;18.17;12.33;;;;;;;;;;5054799;28;20499;-67
2021/07/24 04:04:54;;;;;;;18.87;12.33;;;;;;;;;;5072955;28;20843;-67
2021/07/24 04:07:21;;;;;;;21.10;13.50;;;;;;;;;;5068576;28;20477;-67
2021/07/24 04:09:47;;;;;;;18.90;12.70;;;;;;;;;;5052967;28;20410;-67
2021/07/24 04:12:14;;;;;;;18.03;13.13;;;;;;;;;;5040687;28;20484;-67
2021/07/24 04:14:40;;;;;;;17.40;12.90;;;;;;;;;;5052661;28;20402;-67
2021/07/24 04:17:07;;;;;;;17.17;10.63;;;;;;;;;;5052008;28;20425;-67
2021/07/24 04:19:33;;;;;;;16.87;12.43;;;;;;;;;;5032987;28;20434;-67
2021/07/24 04:21:59;;;;;;;19.17;12.77;;;;;;;;;;5032843;28;20494;-67
2021/07/24 04:24:25;;;;;;;17.10;12.10;;;;;;;;;;5032574;28;21014;-67
2021/07/24 04:26:51;;;;;;;20.03;13.00;;;;;;;;;;5049837;28;20452;-68
2021/07/24 04:29:17;;;;;;;17.27;13.30;;;;;;;;;;5048880;28;20422;-68
2021/07/24 04:31:43;;;;;;;17.53;11.90;;;;;;;;;;5052591;28;20409;-68
2021/07/24 04:34:09;;;;;;;15.90;11.47;;;;;;;;;;5035724;28;20946;-67
2021/07/24 04:36:35;;;;;;;17.63;12.10;;;;;;;;;;5036128;28;20423;-67
2021/07/24 04:39:01;;;;;;;19.60;12.93;;;;;;;;;;5065688;28;20420;-67
2021/07/24 04:41:27;;;;;;;17.37;12.63;;;;;;;;;;5076392;28;20498;-67
2021/07/24 04:43:53;;;;;;;17.53;11.97;;;;;;;;;;5074369;28;20514;-67
2021/07/24 04:46:19;;;;;;;18.90;13.53;;;;;;;;;;5076495;28;20916;-67
2021/07/24 04:48:45;;;;;;;18.10;13.20;;;;;;;;;;5074349;28;20556;-67
2021/07/24 04:51:14;;;;;;;24.00;12.93;;;;;;;;;;5076288;28;20706;-67
2021/07/24 04:53:41;;;;;;;19.27;14.80;;;;;;;;;;5047416;28;20425;-67
2021/07/24 04:56:07;;;;;;;17.07;12.13;;;;;;;;;;5056419;28;20421;-67
2021/07/24 04:58:34;;;;;;;21.37;12.03;;;;;;;;;;5045872;28;20778;-67
2021/07/24 05:01:00;;;;;;;18.23;13.17;;;;;;;;;;5035935;28;20541;-67
2021/07/24 05:03:26;;;;;;;16.53;12.03;;;;;;;;;;5052810;28;20460;-67
2021/07/24 05:05:53;;;;;;;18.47;13.53;;;;;;;;;;5075713;28;20405;-68
2021/07/24 05:08:21;;;;;;;18.67;12.53;;;;;;;;;;5060993;28;20427;-68
2021/07/24 05:10:47;;;;;;;15.20;12.03;;;;;;;;;;5035929;28;20411;-67
2021/07/24 05:13:13;;;;;;;18.60;13.37;;;;;;;;;;5035919;28;20433;-67
2021/07/24 05:15:39;;;;;;;19.50;13.30;;;;;;;;;;5035936;28;20415;-68
2021/07/24 05:18:05;;;;;;;17.57;12.40;;;;;;;;;;5040563;28;20938;-68
2021/07/24 05:20:31;;;;;;;18.83;12.10;;;;;;;;;;5055488;28;20496;-67
2021/07/24 05:22:58;;;;;;;15.40;12.27;;;;;;;;;;5055584;28;20504;-68
2021/07/24 05:25:24;;;;;;;19.23;13.70;;;;;;;;;;5057210;28;20429;-68
2021/07/24 05:27:50;;;;;;;16.10;11.80;;;;;;;;;;5035391;28;20973;-67
2021/07/24 05:30:16;;;;;;;16.07;12.23;;;;;;;;;;5035847;28;20494;-67
2021/07/24 05:32:42;;;;;;;18.37;12.87;;;;;;;;;;5036056;28;20530;-68
2021/07/24 05:35:09;;;;;;;18.07;11.93;;;;;;;;;;5055667;28;20434;-68
2021/07/24 05:37:35;;;;;;;13.73;10.40;;;;;;;;;;5055457;28;20433;-67
2021/07/24 05:40:01;;;;;;;19.07;12.50;;;;;;;;;;5037037;28;20449;-67
2021/07/24 05:42:27;;;;;;;16.20;11.30;;;;;;;;;;5035323;28;20947;-68
2021/07/24 05:44:53;;;;;;;18.70;11.50;;;;;;;;;;5035658;28;20433;-67
2021/07/24 05:47:19;;;;;;;21.17;13.90;;;;;;;;;;5034186;28;20513;-67
2021/07/24 05:49:45;;;;;;;16.10;10.63;;;;;;;;;;5048476;28;20953;-67
2021/07/24 05:52:12;;;;;;;17.97;11.90;;;;;;;;;;5054963;28;20785;-67
2021/07/24 05:54:39;;;;;;;20.33;12.03;;;;;;;;;;5054556;28;20421;-67
2021/07/24 05:57:05;;;;;;;16.47;12.83;;;;;;;;;;5054792;28;20425;-67
2021/07/24 05:59:32;;;;;;;15.33;11.50;;;;;;;;;;5054917;28;20468;-67
2021/07/24 06:01:58;;;;;;;19.50;13.13;;;;;;;;;;5055192;28;20460;-67
2021/07/24 06:04:24;;;;;;;14.43;10.87;;;;;;;;;;5054611;28;20414;-67
2021/07/24 06:06:50;;;;;;;18.00;11.40;;;;;;;;;;5054590;28;20441;-67
2021/07/24 06:09:16;;;;;;;15.33;11.83;;;;;;;;;;5054160;28;20459;-67
2021/07/24 06:11:42;;;;;;;15.07;11.73;;;;;;;;;;5054728;28;20580;-67
2021/07/24 06:14:08;;;;;;;20.03;12.00;;;;;;;;;;5061348;28;20943;-67
2021/07/24 06:16:37;;;;;;;16.07;11.33;;;;;;;;;;5074745;28;20557;-67
2021/07/24 06:19:03;;;;;;;17.03;11.83;;;;;;;;;;5062758;28;20434;-67
2021/07/24 06:21:29;;;;;;;15.37;10.40;;;;;;;;;;5034625;28;20446;-67
2021/07/24 06:23:55;;;;;;;17.03;11.83;;;;;;;;;;5034605;28;20426;-67
2021/07/24 06:26:21;;;;;;;15.60;11.63;;;;;;;;;;5039422;28;20439;-67
2021/07/24 06:28:47;;;;;;;19.83;12.40;;;;;;;;;;5055201;28;20790;-68
2021/07/24 06:31:13;;;;;;;15.73;10.30;;;;;;;;;;5068175;28;20508;-63
2021/07/24 06:33:39;;;;;;;20.03;11.50;;;;;;;;;;5052016;28;20505;-65
2021/07/24 06:36:06;;;;;;;16.30;12.33;;;;;;;;;;5053296;28;20446;-64
2021/07/24 06:38:32;;;;;;;15.47;11.23;;;;;;;;;;5052776;28;20982;-63
2021/07/24 06:40:58;;;;;;;17.80;12.10;;;;;;;;;;5052417;28;20497;-64
2021/07/24 06:43:24;;;;;;;18.23;11.40;;;;;;;;;;5055481;28;20429;-67
2021/07/24 06:45:50;;;;;;;12.63;9.93;;;;;;;;;;5055560;28;20421;-62
2021/07/24 06:48:16;;;;;;;19.57;11.93;;;;;;;;;;5052393;28;20466;-69
2021/07/24 06:50:42;;;;;;;16.67;10.57;;;;;;;;;;5054052;28;20455;-68
2021/07/24 06:53:08;;;;;;;16.60;10.90;;;;;;;;;;5053748;28;20393;-69
2021/07/24 06:55:34;;;;;;;16.37;11.17;;;;;;;;;;5036398;28;20756;-68
2021/07/24 06:58:04;;;;;;;15.97;11.47;;;;;;;;;;5033555;28;20435;-68
2021/07/24 07:00:30;;;;;;;18.57;13.80;;;;;;;;;;5065607;28;20417;-68
2021/07/24 07:02:58;;;;;;;16.50;11.20;;;;;;;;;;5073679;28;20452;-68
2021/07/24 07:05:24;;;;;;;17.50;11.00;;;;;;;;;;5056755;28;20436;-68
2021/07/24 07:07:50;;;;;;;15.60;10.90;;;;;;;;;;5053339;28;20445;-68
2021/07/24 07:10:16;;;;;;;13.80;10.93;;;;;;;;;;5066066;28;20428;-68
2021/07/24 07:12:42;;;;;;;17.40;11.47;;;;;;;;;;5073630;28;20455;-68
2021/07/24 07:15:09;;;;;;;15.47;11.27;;;;;;;;;;5071474;28;20486;-68
2021/07/24 07:17:35;;;;;;;16.90;10.47;;;;;;;;;;5056900;28;20480;-68
2021/07/24 07:20:03;;;;;;;11.57;9.33;;;;;;;;;;5063632;28;20912;-68
2021/07/24 07:22:29;;;;;;;11.57;9.77;;;;;;;;;;5072982;28;20959;-68
2021/07/24 07:24:55;;;;;;;15.80;11.80;;;;;;;;;;5071246;28;20436;-68
2021/07/24 07:27:21;;;;;;;16.80;11.17;;;;;;;;;;5073285;28;20427;-67
2021/07/24 07:29:47;;;;;;;14.13;11.80;;;;;;;;;;5053468;28;20791;-67
2021/07/24 07:32:14;;;;;;;16.70;10.70;;;;;;;;;;5033132;28;20848;-68
2021/07/24 07:34:40;;;;;;;16.60;11.03;;;;;;;;;;5033540;28;20430;-67
2021/07/24 07:37:06;;;;;;;12.27;10.20;;;;;;;;;;5032997;28;20504;-68
2021/07/24 07:39:32;;;;;;;16.13;11.13;;;;;;;;;;5033109;28;20438;-68
2021/07/24 07:41:58;;;;;;;15.63;11.50;;;;;;;;;;5032938;28;20454;-68
2021/07/24 07:44:25;;;;;;;16.53;12.27;;;;;;;;;;5043074;28;20417;-68
2021/07/24 07:46:52;;;;;;;16.73;12.60;;;;;;;;;;5073014;28;20425;-68
2021/07/24 07:49:18;;;;;;;16.47;10.57;;;;;;;;;;5064485;28;20428;-68
2021/07/24 07:51:44;;;;;;;16.43;10.80;;;;;;;;;;5053029;28;20913;-68
2021/07/24 07:54:10;;;;;;;16.67;11.00;;;;;;;;;;5049116;28;20535;-68
2021/07/24 07:56:37;;;;;;;13.93;10.67;;;;;;;;;;5032681;28;20908;-68
2021/07/24 07:59:03;;;;;;;12.47;10.03;;;;;;;;;;5034700;28;20446;-67
2021/07/24 08:01:29;;;;;;;15.77;11.20;;;;;;;;;;5072424;28;20452;-68
2021/07/24 08:03:56;;;;;;;16.23;11.40;;;;;;;;;;5063727;28;20772;-68
2021/07/24 08:06:22;;;;;;;15.33;11.03;;;;;;;;;;5072460;28;20440;-68
2021/07/24 08:08:48;;;;;;;19.93;12.33;;;;;;;;;;5071205;28;20413;-68
2021/07/24 08:11:17;;;;;;;14.80;11.23;;;;;;;;;;5077449;28;20819;-68
2021/07/24 08:13:43;;;;;;;12.77;10.63;;;;;;;;;;5064555;28;20788;-68
2021/07/24 08:16:13;;;;;;;13.93;12.30;;;;;;;;;;5057363;28;20534;-68
2021/07/24 08:18:39;;;;;;;16.37;11.57;;;;;;;;;;5059422;28;20448;-68
2021/07/24 08:21:05;;;;;;;20.63;11.40;;;;;;;;;;5045273;28;20466;-68
2021/07/24 08:23:31;;;;;;;19.23;10.97;;;;;;;;;;5049782;28;20503;-68
2021/07/24 08:25:58;;;;;;;16.53;11.60;;;;;;;;;;5070909;28;20431;-68
2021/07/24 08:28:27;;;;;;;17.13;11.20;;;;;;;;;;5079554;28;20397;-68
2021/07/24 08:30:53;;;;;;;14.50;10.50;;;;;;;;;;5078064;28;20420;-68
2021/07/24 08:33:19;;;;;;;12.47;10.50;;;;;;;;;;5079246;28;20401;-68
2021/07/24 08:35:45;;;;;;;14.67;10.87;;;;;;;;;;5075455;28;20476;-68
2021/07/24 08:38:11;;;;;;;16.00;10.90;;;;;;;;;;5079270;28;20396;-68
2021/07/24 08:40:38;;;;;;;16.13;11.57;;;;;;;;;;5074141;28;20436;-68
2021/07/24 08:43:09;;;;;;;17.23;11.73;;;;;;;;;;5040242;28;20571;-68
2021/07/24 08:45:35;;;;;;;15.00;11.00;;;;;;;;;;5039224;28;20440;-68
2021/07/24 08:48:03;;;;;;;15.23;10.83;;;;;;;;;;5057875;28;20502;-68
2021/07/24 08:50:30;;;;;;;16.10;11.90;;;;;;;;;;5059104;28;20397;-68
2021/07/24 08:52:57;;;;;;;15.33;10.70;;;;;;;;;;5079284;28;20752;-68
2021/07/24 08:55:23;;;;;;;13.00;10.83;;;;;;;;;;5077878;28;20461;-67
2021/07/24 08:57:51;;;;;;;18.20;13.00;;;;;;;;;;5078785;28;20424;-68
2021/07/24 09:00:19;;;;;;;15.17;10.80;;;;;;;;;;5060239;28;20785;-68
2021/07/24 09:02:47;;;;;;;15.40;11.53;;;;;;;;;;5039172;28;20457;-68
2021/07/24 09:05:17;;;;;;;15.27;10.87;;;;;;;;;;5039004;28;20401;-68
2021/07/24 09:07:50;;;;;;;18.37;11.93;;;;;;;;;;5053152;28;20464;-68
2021/07/24 09:10:17;;;;;;;20.00;11.83;;;;;;;;;;5058795;28;20470;-68
2021/07/24 09:12:47;;;;;;;20.63;11.40;;;;;;;;;;5075895;28;20519;-68
2021/07/24 09:15:15;;;;;;;18.90;12.90;;;;;;;;;;5063613;28;20956;-68
2021/07/24 09:17:41;;;;;;;13.83;10.50;;;;;;;;;;5075862;28;20452;-68
2021/07/24 09:20:08;;;;;;;14.40;11.40;;;;;;;;;;5078897;28;20932;-68
2021/07/24 09:22:38;;;;;;;14.47;10.70;;;;;;;;;;5073748;28;20502;-68
2021/07/24 09:25:14;;;;;;;16.50;11.37;;;;;;;;;;5075543;28;20487;-68
2021/07/24 09:27:44;;;;;;;13.30;10.10;;;;;;;;;;5073574;28;20979;-68
2021/07/24 09:30:27;;;;;;;16.23;10.60;;;;;;;;;;5075532;28;20508;-68
2021/07/24 09:33:09;;;;;;;15.27;11.60;;;;;;;;;;5036555;28;20430;-68
2021/07/24 09:36:05;;;;;;;13.63;10.60;;;;;;;;;;5033707;28;20472;-69
2021/07/24 09:38:38;;;;;;;14.50;10.20;;;;;;;;;;5026764;28;20425;-68
2021/07/24 09:41:05;;;;;;;14.70;10.63;;;;;;;;;;5038685;28;20507;-68
2021/07/24 09:43:44;;;;;;;16.03;11.53;;;;;;;;;;5055074;28;20398;-68
2021/07/24 09:46:11;;;;;;;16.47;12.00;;;;;;;;;;5058960;28;20471;-68
2021/07/24 09:48:37;;;;;;;13.53;10.10;;;;;;;;;;5064495;28;20418;-67
2021/07/24 09:51:04;;;;;;;17.13;10.87;;;;;;;;;;5057666;28;20783;-67
2021/07/24 09:53:40;;;;;;;17.47;11.43;;;;;;;;;;5075007;28;20491;-67
2021/07/24 09:56:07;;;;;;;12.80;9.90;;;;;;;;;;5073160;28;20505;-68
2021/07/24 09:58:33;;;;;;;15.50;9.97;;;;;;;;;;5067320;28;20817;-68
2021/07/24 10:01:01;;;;;;;14.83;10.83;;;;;;;;;;5054984;28;20949;-69
2021/07/24 10:03:28;;;;;;;14.97;10.13;;;;;;;;;;5037011;28;20415;-69
2021/07/24 10:05:55;;;;;;;19.77;13.13;;;;;;;;;;5035942;28;20441;-68
2021/07/24 10:08:21;;;;;;;12.97;9.43;;;;;;;;;;5071295;28;20427;-68
2021/07/24 10:10:49;;;;;;;16.93;9.57;;;;;;;;;;5075124;28;20446;-68
2021/07/24 10:13:15;;;;;;;13.93;10.27;;;;;;;;;;5073227;28;20432;-68
2021/07/24 10:15:43;;;;;;;13.77;9.53;;;;;;;;;;5074834;28;20510;-68
2021/07/24 10:18:10;;;;;;;13.73;10.87;;;;;;;;;;5072950;28;20792;-69
2021/07/24 10:20:40;;;;;;;11.90;9.50;;;;;;;;;;5074489;28;20401;-68
2021/07/24 10:23:06;;;;;;;13.83;10.10;;;;;;;;;;5058790;28;20532;-69
2021/07/24 10:25:52;;;;;;;13.27;9.80;;;;;;;;;;5054755;28;20396;-69
2021/07/24 10:28:28;;;;;;;13.67;10.33;;;;;;;;;;5058355;28;20427;-68
2021/07/24 10:30:56;;;;;;;24.27;11.20;;;;;;;;;;5074594;28;20744;-68
2021/07/24 10:33:22;;;;;;;15.30;11.80;;;;;;;;;;5067933;28;20820;-67
2021/07/24 10:35:48;;;;;;;15.50;10.40;;;;;;;;;;5072878;28;20401;-67
2021/07/24 10:38:29;;;;;;;17.37;11.47;;;;;;;;;;5072612;28;20454;-68
2021/07/24 10:40:55;;;;;;;20.13;11.30;;;;;;;;;;5074073;28;20461;-68
2021/07/24 10:43:39;;;;;;;17.27;10.60;;;;;;;;;;5055853;28;20425;-68
2021/07/24 10:46:05;;;;;;;15.53;11.10;;;;;;;;;;5054035;28;20413;-69
2021/07/24 10:48:43;;;;;;;14.17;9.80;;;;;;;;;;5069825;28;20858;-68
2021/07/24 10:51:14;;;;;;;18.43;11.80;;;;;;;;;;5074416;28;20385;-67
2021/07/24 10:54:09;;;;;;;14.20;10.37;;;;;;;;;;5071054;28;20424;-67
2021/07/24 10:56:39;;;;;;;12.10;8.67;;;;;;;;;;5059790;28;20507;-70
2021/07/24 10:59:14;;;;;;;17.40;10.70;;;;;;;;;;5033900;28;20774;-68
2021/07/24 11:01:44;;;;;;;13.67;9.90;;;;;;;;;;5034621;28;20454;-68
2021/07/24 11:04:29;;;;;;;13.27;8.90;;;;;;;;;;5072063;28;20820;-68
2021/07/24 11:07:15;;;;;;;15.23;10.70;;;;;;;;;;5071545;28;20461;-69
2021/07/24 11:09:45;;;;;;;14.47;11.07;;;;;;;;;;5072361;28;20401;-69
2021/07/24 11:12:14;;;;;;;15.77;9.33;;;;;;;;;;5063967;28;20432;-68
2021/07/24 11:14:41;;;;;;;14.47;11.30;;;;;;;;;;5033929;28;20743;-69
2021/07/24 11:17:07;;;;;;;15.97;10.70;;;;;;;;;;5033541;28;20483;-68
2021/07/24 11:19:33;;;;;;;16.07;10.10;;;;;;;;;;5033918;28;20513;-66
2021/07/24 11:22:09;;;;;;;15.73;10.30;;;;;;;;;;5037562;28;20490;-66
2021/07/24 11:24:35;;;;;;;11.03;9.17;;;;;;;;;;5073742;28;20782;-67
2021/07/24 11:27:01;;;;;;;13.63;10.60;;;;;;;;;;5067478;28;20456;-66
2021/07/24 11:29:27;;;;;;;11.67;9.50;;;;;;;;;;5033484;28;20905;-66
2021/07/24 11:31:53;;;;;;;14.70;9.47;;;;;;;;;;5033557;28;20485;-69
2021/07/24 11:34:22;;;;;;;11.23;9.23;;;;;;;;;;5034405;28;20902;-71
2021/07/24 11:36:51;;;;;;;12.43;9.00;;;;;;;;;;5036256;28;20500;-70
2021/07/24 11:39:22;;;;;;;12.23;9.67;;;;;;;;;;5075137;28;20763;-71
2021/07/24 11:41:48;;;;;;;13.53;9.53;;;;;;;;;;5073162;28;20447;-71
2021/07/24 11:44:23;;;;;;;11.47;9.33;;;;;;;;;;5073082;28;20742;-70
2021/07/24 11:46:59;;;;;;;13.40;9.87;;;;;;;;;;5071692;28;20424;-70
2021/07/24 11:49:25;;;;;;;11.60;10.20;;;;;;;;;;5032911;28;20477;-70
2021/07/24 11:51:51;;;;;;;13.13;10.57;;;;;;;;;;5031839;28;20485;-70
2021/07/24 11:54:47;;;;;;;15.53;10.90;;;;;;;;;;5072858;28;20423;-70
2021/07/24 11:57:13;;;;;;;14.20;10.00;;;;;;;;;;5056168;28;20465;-70
2021/07/24 11:59:40;;;;;;;12.17;9.00;;;;;;;;;;5053429;28;20427;-69
2021/07/24 12:02:18;;;;;;;12.53;8.80;;;;;;;;;;5052109;28;20449;-70
2021/07/24 12:04:48;;;;;;;14.23;10.63;;;;;;;;;;5053339;28;20393;-70
2021/07/24 12:07:14;;;;;;;14.63;9.63;;;;;;;;;;5054146;28;20489;-70
2021/07/24 12:09:41;;;;;;;16.67;9.90;;;;;;;;;;5073138;28;20829;-70
2021/07/24 12:12:07;;;;;;;12.50;9.73;;;;;;;;;;5069391;28;20432;-70
2021/07/24 12:14:33;;;;;;;13.40;10.30;;;;;;;;;;5073075;28;20409;-70
2021/07/24 12:17:12;;;;;;;11.10;9.87;;;;;;;;;;5071368;28;20474;-70
2021/07/24 12:19:41;;;;;;;10.83;9.20;;;;;;;;;;5033022;28;20398;-70
2021/07/24 12:22:17;;;;;;;10.70;9.03;;;;;;;;;;5032946;28;20450;-70
2021/07/24 12:24:43;;;;;;;11.63;9.70;;;;;;;;;;5072911;28;20400;-70
2021/07/24 12:27:21;;;;;;;12.97;9.50;;;;;;;;;;5070339;28;20420;-71
2021/07/24 12:29:47;;;;;;;14.17;9.00;;;;;;;;;;5051473;28;20496;-71
2021/07/24 12:32:13;;;;;;;12.30;8.90;;;;;;;;;;5053048;28;20433;-70
2021/07/24 12:34:39;;;;;;;13.77;8.60;;;;;;;;;;5051274;28;20440;-70
2021/07/24 12:37:05;;;;;;;11.87;9.20;;;;;;;;;;5052574;28;20928;-70
2021/07/24 12:39:32;;;;;;;15.90;9.57;;;;;;;;;;5065103;28;20428;-70
2021/07/24 12:41:59;;;;;;;11.77;9.13;;;;;;;;;;5072766;28;20543;-70
2021/07/24 12:44:25;;;;;;;11.33;8.77;;;;;;;;;;5055048;28;20430;-70
2021/07/24 12:47:13;;;;;;;12.80;9.90;;;;;;;;;;5052843;28;20424;-70
2021/07/24 12:49:41;;;;;;;11.47;9.00;;;;;;;;;;5068884;28;20455;-70
2021/07/24 12:52:27;;;;;;;16.13;9.53;;;;;;;;;;5033537;28;20422;-70
2021/07/24 12:55:01;;;;;;;15.30;9.60;;;;;;;;;;5067954;28;20722;-70
2021/07/24 12:57:29;;;;;;;9.80;8.47;;;;;;;;;;5067143;28;20448;-70
2021/07/24 12:59:55;;;;;;;11.53;8.47;;;;;;;;;;5071299;28;20783;-70
2021/07/24 13:02:21;;;;;;;11.90;9.03;;;;;;;;;;5076461;28;20952;-71
2021/07/24 13:04:52;;;;;;;13.03;8.20;;;;;;;;;;5074633;28;21008;-71
2021/07/24 13:07:18;;;;;;;11.10;8.33;;;;;;;;;;5075939;28;20464;-70
2021/07/24 13:09:44;;;;;;;10.47;9.03;;;;;;;;;;5074533;28;20432;-71
2021/07/24 13:12:10;;;;;;;14.10;8.60;;;;;;;;;;5076077;28;20532;-71
2021/07/24 13:14:36;;;;;;;12.97;8.37;;;;;;;;;;5074294;28;20504;-71
2021/07/24 13:17:02;;;;;;;12.63;8.60;;;;;;;;;;5076093;28;20551;-70
2021/07/24 13:19:28;;;;;;;12.53;10.10;;;;;;;;;;5074329;28;20434;-71
2021/07/24 13:21:54;;;;;;;12.73;9.10;;;;;;;;;;5075927;28;20524;-71
2021/07/24 13:24:20;;;;;;;13.03;9.37;;;;;;;;;;5074076;28;20896;-70
2021/07/24 13:29:32;;;;;;;10.77;9.00;;;;;;;;;;5035697;28;21053;-71
2021/07/24 13:31:58;;;;;;;11.33;8.70;;;;;;;;;;5036089;28;20512;-70
2021/07/24 13:34:24;;;;;;;15.87;10.10;;;;;;;;;;5059482;28;20443;-70
2021/07/24 13:36:51;;;;;;;12.80;9.63;;;;;;;;;;5075749;28;20474;-71
2021/07/24 13:39:18;;;;;;;13.47;10.20;;;;;;;;;;5074312;28;20435;-70
2021/07/24 13:41:44;;;;;;;15.97;9.87;;;;;;;;;;5075612;28;20448;-70
2021/07/24 13:44:10;;;;;;;13.00;10.00;;;;;;;;;;5074075;28;20425;-70
2021/07/24 13:46:36;;;;;;;15.60;10.80;;;;;;;;;;5075540;28;20864;-70
2021/07/24 13:49:04;;;;;;;12.73;9.37;;;;;;;;;;5068013;28;20425;-71
2021/07/24 13:51:30;;;;;;;14.80;10.90;;;;;;;;;;5076366;28;20408;-71
2021/07/24 13:53:56;;;;;;;13.50;9.87;;;;;;;;;;5074032;28;20424;-71
2021/07/24 13:56:22;;;;;;;13.70;9.43;;;;;;;;;;5076429;28;20512;-71
2021/07/24 13:58:48;;;;;;;12.93;9.97;;;;;;;;;;5067257;28;20482;-71
2021/07/24 14:01:14;;;;;;;12.50;8.70;;;;;;;;;;5056005;28;20504;-71
2021/07/24 14:03:41;;;;;;;11.37;9.23;;;;;;;;;;5059691;28;20462;-71
2021/07/24 14:06:07;;;;;;;13.17;9.47;;;;;;;;;;5073254;28;20460;-71
2021/07/24 14:08:33;;;;;;;15.43;10.00;;;;;;;;;;5057316;28;20428;-71
2021/07/24 14:10:59;;;;;;;12.77;9.67;;;;;;;;;;5076253;28;20397;-71
2021/07/24 14:13:25;;;;;;;13.20;10.40;;;;;;;;;;5067731;28;20525;-71
2021/07/24 14:15:51;;;;;;;11.20;8.90;;;;;;;;;;5034963;28;20431;-71
2021/07/24 14:18:18;;;;;;;15.23;9.67;;;;;;;;;;5036676;28;20403;-71
2021/07/24 14:20:44;;;;;;;12.50;10.30;;;;;;;;;;5053434;28;20421;-71
2021/07/24 14:23:11;;;;;;;14.00;10.70;;;;;;;;;;5053800;28;20461;-71
2021/07/24 14:25:37;;;;;;;13.27;9.93;;;;;;;;;;5074621;28;20404;-71
2021/07/24 14:28:03;;;;;;;13.40;10.07;;;;;;;;;;5074871;28;20499;-70